sensor_id;sensor_type;location;lat;lon;timestamp;temperature;humidity
2409;DHT22;8463;48.094;7.970;2023-06-05T00:00:42;16.60;1.00
2409;DHT22;8463;48.094;7.970;2023-06-05T00:03:07;16.60;1.00
2409;DHT22;8463;48.094;7.970;2023-06-05T00:05:33;16.60;1.00
2409;DHT22;8463;48.094;7.970;2023-06-05T00:10:25;16.50;1.00
2409;DHT22;8463;48.094;7.970;2023-06-05T00:12:51;16.60;1.00
2409;DHT22;8463;48.094;7.970;2023-06-05T00:15:17;16.60;1.00
2409;DHT22;8463;48.094;7.970;2023-06-05T00:17:45;16.50;1.00
2409;DHT22;8463;48.094;7.970;2023-06-05T00:20:12;16.50;1.00
2409;DHT22;8463;48.094;7.970;2023-06-05T00:22:38;16.50;1.00
2409;DHT22;8463;48.094;7.970;2023-06-05T00:25:10;16.40;1.00
2409;DHT22;8463;48.094;7.970;2023-06-05T00:27:35;16.40;1.00
2409;DHT22;8463;48.094;7.970;2023-06-05T00:30:01;16.40;1.00
2409;DHT22;8463;48.094;7.970;2023-06-05T00:32:27;16.30;1.00
2409;DHT22;8463;48.094;7.970;2023-06-05T00:34:54;16.30;1.00
2409;DHT22;8463;48.094;7.970;2023-06-05T00:37:20;16.30;1.00
2409;DHT22;8463;48.094;7.970;2023-06-05T00:39:45;16.30;1.00
2409;DHT22;8463;48.094;7.970;2023-06-05T00:42:11;16.30;1.00
2409;DHT22;8463;48.094;7.970;2023-06-05T00:44:37;16.30;1.00
2409;DHT22;8463;48.094;7.970;2023-06-05T00:47:03;16.30;1.00
2409;DHT22;8463;48.094;7.970;2023-06-05T00:49:30;16.30;1.00
2409;DHT22;8463;48.094;7.970;2023-06-05T00:51:57;16.20;1.00
2409;DHT22;8463;48.094;7.970;2023-06-05T00:54:23;16.20;1.00
2409;DHT22;8463;48.094;7.970;2023-06-05T00:56:49;16.10;1.00
2409;DHT22;8463;48.094;7.970;2023-06-05T00:59:15;16.10;1.00
2409;DHT22;8463;48.094;7.970;2023-06-05T01:01:40;16.00;1.00
2409;DHT22;8463;48.094;7.970;2023-06-05T01:04:08;16.00;1.00
2409;DHT22;8463;48.094;7.970;2023-06-05T01:06:34;16.00;1.00
2409;DHT22;8463;48.094;7.970;2023-06-05T01:09:02;15.90;1.00
2409;DHT22;8463;48.094;7.970;2023-06-05T01:11:56;15.90;1.00
2409;DHT22;8463;48.094;7.970;2023-06-05T01:14:24;15.80;1.00
2409;DHT22;8463;48.094;7.970;2023-06-05T01:16:53;15.90;1.00
2409;DHT22;8463;48.094;7.970;2023-06-05T01:19:20;15.80;1.00
2409;DHT22;8463;48.094;7.970;2023-06-05T01:21:51;15.80;1.00
2409;DHT22;8463;48.094;7.970;2023-06-05T01:24:18;15.90;1.00
2409;DHT22;8463;48.094;7.970;2023-06-05T01:27:15;15.80;1.00
2409;DHT22;8463;48.094;7.970;2023-06-05T01:32:17;15.60;1.00
2409;DHT22;8463;48.094;7.970;2023-06-05T01:34:45;15.70;1.00
2409;DHT22;8463;48.094;7.970;2023-06-05T01:37:14;15.60;1.00
2409;DHT22;8463;48.094;7.970;2023-06-05T01:39:45;15.50;1.00
2409;DHT22;8463;48.094;7.970;2023-06-05T01:42:13;15.50;1.00
2409;DHT22;8463;48.094;7.970;2023-06-05T01:44:40;15.40;1.00
2409;DHT22;8463;48.094;7.970;2023-06-05T01:47:07;15.30;1.00
2409;DHT22;8463;48.094;7.970;2023-06-05T01:49:33;15.30;1.00
2409;DHT22;8463;48.094;7.970;2023-06-05T01:51:59;15.20;1.00
2409;DHT22;8463;48.094;7.970;2023-06-05T01:54:28;15.30;1.00
2409;DHT22;8463;48.094;7.970;2023-06-05T01:57:00;15.30;1.00
2409;DHT22;8463;48.094;7.970;2023-06-05T01:59:25;15.30;1.00
2409;DHT22;8463;48.094;7.970;2023-06-05T02:01:54;15.30;1.00
2409;DHT22;8463;48.094;7.970;2023-06-05T02:04:19;15.30;1.00
2409;DHT22;8463;48.094;7.970;2023-06-05T02:06:45;15.20;1.00
2409;DHT22;8463;48.094;7.970;2023-06-05T02:09:12;15.20;1.00
2409;DHT22;8463;48.094;7.970;2023-06-05T02:11:44;15.10;1.00
2409;DHT22;8463;48.094;7.970;2023-06-05T02:14:12;15.10;1.00
2409;DHT22;8463;48.094;7.970;2023-06-05T02:16:39;15.10;1.00
2409;DHT22;8463;48.094;7.970;2023-06-05T02:19:05;15.10;1.00
2409;DHT22;8463;48.094;7.970;2023-06-05T02:21:32;15.10;1.00
2409;DHT22;8463;48.094;7.970;2023-06-05T02:23:59;15.00;1.00
2409;DHT22;8463;48.094;7.970;2023-06-05T02:26:26;14.90;1.00
2409;DHT22;8463;48.094;7.970;2023-06-05T02:28:52;14.90;1.00
2409;DHT22;8463;48.094;7.970;2023-06-05T02:31:24;14.90;1.00
2409;DHT22;8463;48.094;7.970;2023-06-05T02:33:52;15.00;1.00
2409;DHT22;8463;48.094;7.970;2023-06-05T02:36:18;15.00;1.00
2409;DHT22;8463;48.094;7.970;2023-06-05T02:38:43;15.00;1.00
2409;DHT22;8463;48.094;7.970;2023-06-05T02:41:10;14.80;1.00
2409;DHT22;8463;48.094;7.970;2023-06-05T02:43:36;14.80;1.00
2409;DHT22;8463;48.094;7.970;2023-06-05T02:46:03;14.60;1.00
2409;DHT22;8463;48.094;7.970;2023-06-05T02:48:31;14.60;1.00
2409;DHT22;8463;48.094;7.970;2023-06-05T02:50:59;14.60;1.00
2409;DHT22;8463;48.094;7.970;2023-06-05T02:53:24;14.70;1.00
2409;DHT22;8463;48.094;7.970;2023-06-05T02:55:50;14.60;1.00
2409;DHT22;8463;48.094;7.970;2023-06-05T02:58:22;14.50;1.00
2409;DHT22;8463;48.094;7.970;2023-06-05T03:00:47;14.60;1.00
2409;DHT22;8463;48.094;7.970;2023-06-05T03:03:15;14.60;1.00
2409;DHT22;8463;48.094;7.970;2023-06-05T03:05:45;14.60;1.00
2409;DHT22;8463;48.094;7.970;2023-06-05T03:08:11;14.50;1.00
2409;DHT22;8463;48.094;7.970;2023-06-05T03:10:42;14.40;1.00
2409;DHT22;8463;48.094;7.970;2023-06-05T03:13:08;14.40;1.00
2409;DHT22;8463;48.094;7.970;2023-06-05T03:15:33;14.40;1.00
2409;DHT22;8463;48.094;7.970;2023-06-05T03:17:59;14.30;1.00
2409;DHT22;8463;48.094;7.970;2023-06-05T03:20:26;14.30;1.00
2409;DHT22;8463;48.094;7.970;2023-06-05T03:25:17;14.20;1.00
2409;DHT22;8463;48.094;7.970;2023-06-05T03:27:43;14.20;1.00
2409;DHT22;8463;48.094;7.970;2023-06-05T03:30:09;14.10;1.00
2409;DHT22;8463;48.094;7.970;2023-06-05T03:32:39;14.10;1.00
2409;DHT22;8463;48.094;7.970;2023-06-05T03:35:05;14.10;1.00
2409;DHT22;8463;48.094;7.970;2023-06-05T03:37:31;14.10;1.00
2409;DHT22;8463;48.094;7.970;2023-06-05T03:39:57;14.00;1.00
2409;DHT22;8463;48.094;7.970;2023-06-05T03:42:22;14.00;1.00
2409;DHT22;8463;48.094;7.970;2023-06-05T03:44:48;14.00;1.00
2409;DHT22;8463;48.094;7.970;2023-06-05T03:47:14;14.10;1.00
2409;DHT22;8463;48.094;7.970;2023-06-05T03:49:40;14.10;1.00
2409;DHT22;8463;48.094;7.970;2023-06-05T03:52:11;14.10;1.00
2409;DHT22;8463;48.094;7.970;2023-06-05T03:54:39;14.20;1.00
2409;DHT22;8463;48.094;7.970;2023-06-05T03:57:06;14.30;1.00
2409;DHT22;8463;48.094;7.970;2023-06-05T03:59:35;14.40;1.00
2409;DHT22;8463;48.094;7.970;2023-06-05T04:02:00;14.40;1.00
2409;DHT22;8463;48.094;7.970;2023-06-05T04:04:27;14.50;1.00
2409;DHT22;8463;48.094;7.970;2023-06-05T04:06:55;14.50;1.00
2409;DHT22;8463;48.094;7.970;2023-06-05T04:09:22;14.50;1.00
2409;DHT22;8463;48.094;7.970;2023-06-05T04:14:16;14.60;1.00
2409;DHT22;8463;48.094;7.970;2023-06-05T04:16:44;14.60;1.00
2409;DHT22;8463;48.094;7.970;2023-06-05T04:19:11;14.80;1.00
2409;DHT22;8463;48.094;7.970;2023-06-05T04:21:38;14.80;1.00
2409;DHT22;8463;48.094;7.970;2023-06-05T04:24:05;14.80;1.00
2409;DHT22;8463;48.094;7.970;2023-06-05T04:26:43;14.90;1.00
2409;DHT22;8463;48.094;7.970;2023-06-05T04:29:09;14.90;1.00
2409;DHT22;8463;48.094;7.970;2023-06-05T04:31:47;14.90;1.00
2409;DHT22;8463;48.094;7.970;2023-06-05T04:34:16;15.00;1.00
2409;DHT22;8463;48.094;7.970;2023-06-05T04:36:43;15.00;1.00
2409;DHT22;8463;48.094;7.970;2023-06-05T04:39:09;14.90;1.00
2409;DHT22;8463;48.094;7.970;2023-06-05T04:41:44;14.90;1.00
2409;DHT22;8463;48.094;7.970;2023-06-05T04:44:12;14.90;1.00
2409;DHT22;8463;48.094;7.970;2023-06-05T04:46:47;14.90;1.00
2409;DHT22;8463;48.094;7.970;2023-06-05T04:49:14;14.90;1.00
2409;DHT22;8463;48.094;7.970;2023-06-05T04:51:40;14.80;1.00
2409;DHT22;8463;48.094;7.970;2023-06-05T04:54:11;15.10;1.00
2409;DHT22;8463;48.094;7.970;2023-06-05T04:56:37;15.20;1.00
2409;DHT22;8463;48.094;7.970;2023-06-05T04:59:04;15.20;1.00
2409;DHT22;8463;48.094;7.970;2023-06-05T05:01:30;15.40;1.00
2409;DHT22;8463;48.094;7.970;2023-06-05T05:03:56;15.50;1.00
2409;DHT22;8463;48.094;7.970;2023-06-05T05:06:25;15.80;1.00
2409;DHT22;8463;48.094;7.970;2023-06-05T05:08:51;15.80;1.00
2409;DHT22;8463;48.094;7.970;2023-06-05T05:11:17;16.00;1.00
2409;DHT22;8463;48.094;7.970;2023-06-05T05:13:43;16.30;1.00
2409;DHT22;8463;48.094;7.970;2023-06-05T05:16:11;16.40;1.00
2409;DHT22;8463;48.094;7.970;2023-06-05T05:18:40;16.50;1.00
2409;DHT22;8463;48.094;7.970;2023-06-05T05:21:10;16.60;1.00
2409;DHT22;8463;48.094;7.970;2023-06-05T05:23:36;16.60;1.00
2409;DHT22;8463;48.094;7.970;2023-06-05T05:26:02;16.70;1.00
2409;DHT22;8463;48.094;7.970;2023-06-05T05:28:30;16.80;1.00
2409;DHT22;8463;48.094;7.970;2023-06-05T05:30:56;16.90;1.00
2409;DHT22;8463;48.094;7.970;2023-06-05T05:33:23;17.00;1.00
2409;DHT22;8463;48.094;7.970;2023-06-05T05:35:48;16.80;1.00
2409;DHT22;8463;48.094;7.970;2023-06-05T05:38:14;16.80;1.00
2409;DHT22;8463;48.094;7.970;2023-06-05T05:40:44;17.10;1.00
2409;DHT22;8463;48.094;7.970;2023-06-05T05:43:14;17.10;1.00
2409;DHT22;8463;48.094;7.970;2023-06-05T05:45:40;17.30;1.00
2409;DHT22;8463;48.094;7.970;2023-06-05T05:48:11;17.50;1.00
2409;DHT22;8463;48.094;7.970;2023-06-05T05:50:39;17.80;1.00
2409;DHT22;8463;48.094;7.970;2023-06-05T05:53:05;18.00;1.00
2409;DHT22;8463;48.094;7.970;2023-06-05T05:55:31;18.10;1.00
2409;DHT22;8463;48.094;7.970;2023-06-05T05:57:56;18.20;1.00
2409;DHT22;8463;48.094;7.970;2023-06-05T06:00:22;18.30;1.00
2409;DHT22;8463;48.094;7.970;2023-06-05T06:02:47;18.30;1.00
2409;DHT22;8463;48.094;7.970;2023-06-05T06:05:13;18.50;1.00
2409;DHT22;8463;48.094;7.970;2023-06-05T06:07:39;18.60;1.00
2409;DHT22;8463;48.094;7.970;2023-06-05T06:10:07;18.60;1.00
2409;DHT22;8463;48.094;7.970;2023-06-05T06:12:34;18.60;1.00
2409;DHT22;8463;48.094;7.970;2023-06-05T06:15:00;19.10;1.00
2409;DHT22;8463;48.094;7.970;2023-06-05T06:17:25;19.10;1.00
2409;DHT22;8463;48.094;7.970;2023-06-05T06:19:52;19.20;1.00
2409;DHT22;8463;48.094;7.970;2023-06-05T06:22:18;19.30;1.00
2409;DHT22;8463;48.094;7.970;2023-06-05T06:24:46;19.30;1.00
2409;DHT22;8463;48.094;7.970;2023-06-05T06:27:15;19.40;1.00
2409;DHT22;8463;48.094;7.970;2023-06-05T06:29:50;19.70;1.00
2409;DHT22;8463;48.094;7.970;2023-06-05T06:32:22;19.70;1.00
2409;DHT22;8463;48.094;7.970;2023-06-05T06:34:55;19.80;1.00
2409;DHT22;8463;48.094;7.970;2023-06-05T06:37:21;20.00;1.00
2409;DHT22;8463;48.094;7.970;2023-06-05T06:39:49;20.20;1.00
2409;DHT22;8463;48.094;7.970;2023-06-05T06:42:15;20.20;1.00
2409;DHT22;8463;48.094;7.970;2023-06-05T06:44:41;20.30;1.00
2409;DHT22;8463;48.094;7.970;2023-06-05T06:47:07;20.40;1.00
2409;DHT22;8463;48.094;7.970;2023-06-05T06:49:42;20.50;1.00
2409;DHT22;8463;48.094;7.970;2023-06-05T06:52:08;20.60;1.00
2409;DHT22;8463;48.094;7.970;2023-06-05T06:54:33;20.80;1.00
2409;DHT22;8463;48.094;7.970;2023-06-05T06:57:00;20.80;1.00
2409;DHT22;8463;48.094;7.970;2023-06-05T06:59:32;21.00;1.00
2409;DHT22;8463;48.094;7.970;2023-06-05T07:02:18;21.10;1.00
2409;DHT22;8463;48.094;7.970;2023-06-05T07:04:46;20.90;1.00
2409;DHT22;8463;48.094;7.970;2023-06-05T07:07:18;20.60;1.00
2409;DHT22;8463;48.094;7.970;2023-06-05T07:09:45;20.30;1.00
2409;DHT22;8463;48.094;7.970;2023-06-05T07:12:12;20.20;1.00
2409;DHT22;8463;48.094;7.970;2023-06-05T07:14:42;20.10;1.00
2409;DHT22;8463;48.094;7.970;2023-06-05T07:19:34;19.70;1.00
2409;DHT22;8463;48.094;7.970;2023-06-05T07:22:02;19.50;1.00
2409;DHT22;8463;48.094;7.970;2023-06-05T07:24:32;19.40;1.00
2409;DHT22;8463;48.094;7.970;2023-06-05T07:27:00;19.40;1.00
2409;DHT22;8463;48.094;7.970;2023-06-05T07:29:26;19.50;1.00
2409;DHT22;8463;48.094;7.970;2023-06-05T07:31:56;19.50;1.00
2409;DHT22;8463;48.094;7.970;2023-06-05T07:34:23;19.50;1.00
2409;DHT22;8463;48.094;7.970;2023-06-05T07:36:50;19.50;1.00
2409;DHT22;8463;48.094;7.970;2023-06-05T07:39:23;19.50;1.00
2409;DHT22;8463;48.094;7.970;2023-06-05T07:41:52;19.60;1.00
2409;DHT22;8463;48.094;7.970;2023-06-05T07:44:21;19.60;1.00
2409;DHT22;8463;48.094;7.970;2023-06-05T07:46:48;19.70;1.00
2409;DHT22;8463;48.094;7.970;2023-06-05T07:49:14;19.70;1.00
2409;DHT22;8463;48.094;7.970;2023-06-05T07:51:42;19.60;1.00
2409;DHT22;8463;48.094;7.970;2023-06-05T07:54:12;19.60;1.00
2409;DHT22;8463;48.094;7.970;2023-06-05T07:56:38;19.50;1.00
2409;DHT22;8463;48.094;7.970;2023-06-05T07:59:05;19.60;1.00
2409;DHT22;8463;48.094;7.970;2023-06-05T08:01:34;19.70;1.00
2409;DHT22;8463;48.094;7.970;2023-06-05T08:04:04;19.60;1.00
2409;DHT22;8463;48.094;7.970;2023-06-05T08:06:30;19.70;1.00
2409;DHT22;8463;48.094;7.970;2023-06-05T08:08:59;19.80;1.00
2409;DHT22;8463;48.094;7.970;2023-06-05T08:11:25;19.80;1.00
2409;DHT22;8463;48.094;7.970;2023-06-05T08:13:52;20.00;1.00
2409;DHT22;8463;48.094;7.970;2023-06-05T08:18:43;20.20;1.00
2409;DHT22;8463;48.094;7.970;2023-06-05T08:21:10;20.10;1.00
2409;DHT22;8463;48.094;7.970;2023-06-05T08:23:36;20.10;1.00
2409;DHT22;8463;48.094;7.970;2023-06-05T08:26:02;20.20;1.00
2409;DHT22;8463;48.094;7.970;2023-06-05T08:28:39;20.30;1.00
2409;DHT22;8463;48.094;7.970;2023-06-05T08:31:07;20.30;1.00
2409;DHT22;8463;48.094;7.970;2023-06-05T08:33:34;20.50;1.00
2409;DHT22;8463;48.094;7.970;2023-06-05T08:35:59;20.70;1.00
2409;DHT22;8463;48.094;7.970;2023-06-05T08:38:30;20.60;1.00
2409;DHT22;8463;48.094;7.970;2023-06-05T08:41:06;20.70;1.00
2409;DHT22;8463;48.094;7.970;2023-06-05T08:43:45;20.70;1.00
2409;DHT22;8463;48.094;7.970;2023-06-05T08:46:11;20.70;1.00
2409;DHT22;8463;48.094;7.970;2023-06-05T08:48:48;20.80;1.00
2409;DHT22;8463;48.094;7.970;2023-06-05T08:51:17;20.90;1.00
2409;DHT22;8463;48.094;7.970;2023-06-05T08:53:50;21.10;1.00
2409;DHT22;8463;48.094;7.970;2023-06-05T08:56:19;21.00;1.00
2409;DHT22;8463;48.094;7.970;2023-06-05T08:58:45;21.30;1.00
2409;DHT22;8463;48.094;7.970;2023-06-05T09:01:11;21.30;1.00
2409;DHT22;8463;48.094;7.970;2023-06-05T09:03:37;21.40;1.00
2409;DHT22;8463;48.094;7.970;2023-06-05T09:06:06;21.50;1.00
2409;DHT22;8463;48.094;7.970;2023-06-05T09:08:33;21.60;1.00
2409;DHT22;8463;48.094;7.970;2023-06-05T09:11:32;21.40;1.00
2409;DHT22;8463;48.094;7.970;2023-06-05T09:14:02;21.20;1.00
2409;DHT22;8463;48.094;7.970;2023-06-05T09:16:39;21.60;1.00
2409;DHT22;8463;48.094;7.970;2023-06-05T09:19:07;21.90;1.00
2409;DHT22;8463;48.094;7.970;2023-06-05T09:21:33;21.90;1.00
2409;DHT22;8463;48.094;7.970;2023-06-05T09:29:26;22.10;1.00
2409;DHT22;8463;48.094;7.970;2023-06-05T09:32:00;22.30;1.00
2409;DHT22;8463;48.094;7.970;2023-06-05T09:34:28;22.30;1.00
2409;DHT22;8463;48.094;7.970;2023-06-05T09:37:13;22.40;1.00
2409;DHT22;8463;48.094;7.970;2023-06-05T09:39:42;22.90;1.00
2409;DHT22;8463;48.094;7.970;2023-06-05T09:42:13;22.50;1.00
2409;DHT22;8463;48.094;7.970;2023-06-05T09:44:39;22.50;1.00
2409;DHT22;8463;48.094;7.970;2023-06-05T09:47:07;22.50;1.00
2409;DHT22;8463;48.094;7.970;2023-06-05T09:52:07;22.70;1.00
2409;DHT22;8463;48.094;7.970;2023-06-05T09:54:32;22.60;1.00
2409;DHT22;8463;48.094;7.970;2023-06-05T09:57:02;22.90;1.00
2409;DHT22;8463;48.094;7.970;2023-06-05T09:59:40;23.20;1.00
2409;DHT22;8463;48.094;7.970;2023-06-05T10:02:12;23.40;1.00
2409;DHT22;8463;48.094;7.970;2023-06-05T10:05:00;23.40;1.00
2409;DHT22;8463;48.094;7.970;2023-06-05T10:07:27;23.50;1.00
2409;DHT22;8463;48.094;7.970;2023-06-05T10:09:53;23.50;1.00
2409;DHT22;8463;48.094;7.970;2023-06-05T10:12:20;23.70;1.00
2409;DHT22;8463;48.094;7.970;2023-06-05T10:14:47;23.70;1.00
2409;DHT22;8463;48.094;7.970;2023-06-05T10:17:14;23.70;1.00
2409;DHT22;8463;48.094;7.970;2023-06-05T10:19:44;23.80;1.00
2409;DHT22;8463;48.094;7.970;2023-06-05T10:22:10;24.00;1.00
2409;DHT22;8463;48.094;7.970;2023-06-05T10:24:41;24.20;1.00
2409;DHT22;8463;48.094;7.970;2023-06-05T10:37:41;24.80;1.00
2409;DHT22;8463;48.094;7.970;2023-06-05T10:40:09;24.90;1.00
2409;DHT22;8463;48.094;7.970;2023-06-05T10:42:38;25.20;1.00
2409;DHT22;8463;48.094;7.970;2023-06-05T10:45:04;25.50;1.00
2409;DHT22;8463;48.094;7.970;2023-06-05T10:52:44;26.00;1.00
2409;DHT22;8463;48.094;7.970;2023-06-05T10:55:10;26.30;1.00
2409;DHT22;8463;48.094;7.970;2023-06-05T11:00:28;27.00;1.00
2409;DHT22;8463;48.094;7.970;2023-06-05T11:02:54;27.50;1.00
2409;DHT22;8463;48.094;7.970;2023-06-05T11:05:21;27.40;1.00
2409;DHT22;8463;48.094;7.970;2023-06-05T11:07:47;27.20;1.00
2409;DHT22;8463;48.094;7.970;2023-06-05T11:10:16;27.00;1.00
2409;DHT22;8463;48.094;7.970;2023-06-05T11:17:55;27.70;1.00
2409;DHT22;8463;48.094;7.970;2023-06-05T11:27:50;28.10;1.00
2409;DHT22;8463;48.094;7.970;2023-06-05T11:30:17;28.10;1.00
2409;DHT22;8463;48.094;7.970;2023-06-05T11:32:44;28.00;1.00
2409;DHT22;8463;48.094;7.970;2023-06-05T11:35:10;28.20;1.00
2409;DHT22;8463;48.094;7.970;2023-06-05T11:37:37;28.30;1.00
2409;DHT22;8463;48.094;7.970;2023-06-05T11:40:03;28.40;1.00
2409;DHT22;8463;48.094;7.970;2023-06-05T11:42:39;28.30;1.00
2409;DHT22;8463;48.094;7.970;2023-06-05T11:45:14;28.20;1.00
2409;DHT22;8463;48.094;7.970;2023-06-05T11:47:41;28.00;1.00
2409;DHT22;8463;48.094;7.970;2023-06-05T11:50:11;27.70;1.00
2409;DHT22;8463;48.094;7.970;2023-06-05T11:52:37;27.60;1.00
2409;DHT22;8463;48.094;7.970;2023-06-05T11:55:15;27.70;1.00
2409;DHT22;8463;48.094;7.970;2023-06-05T11:57:47;27.90;1.00
2409;DHT22;8463;48.094;7.970;2023-06-05T12:00:15;27.80;1.00
2409;DHT22;8463;48.094;7.970;2023-06-05T12:02:42;27.90;1.00
2409;DHT22;8463;48.094;7.970;2023-06-05T12:05:13;27.90;1.00
2409;DHT22;8463;48.094;7.970;2023-06-05T12:07:39;27.90;1.00
2409;DHT22;8463;48.094;7.970;2023-06-05T12:10:06;27.90;1.00
2409;DHT22;8463;48.094;7.970;2023-06-05T12:12:49;27.80;1.00
2409;DHT22;8463;48.094;7.970;2023-06-05T12:15:18;27.90;1.00
2409;DHT22;8463;48.094;7.970;2023-06-05T12:17:55;28.00;1.00
2409;DHT22;8463;48.094;7.970;2023-06-05T12:20:22;27.80;1.00
2409;DHT22;8463;48.094;7.970;2023-06-05T12:22:48;27.80;1.00
2409;DHT22;8463;48.094;7.970;2023-06-05T12:25:20;27.90;1.00
2409;DHT22;8463;48.094;7.970;2023-06-05T12:27:47;27.90;1.00
2409;DHT22;8463;48.094;7.970;2023-06-05T12:30:13;27.80;1.00
2409;DHT22;8463;48.094;7.970;2023-06-05T12:32:42;27.50;1.00
2409;DHT22;8463;48.094;7.970;2023-06-05T12:35:23;27.40;1.00
2409;DHT22;8463;48.094;7.970;2023-06-05T12:37:50;27.10;1.00
2409;DHT22;8463;48.094;7.970;2023-06-05T12:40:17;26.90;1.00
2409;DHT22;8463;48.094;7.970;2023-06-05T12:42:47;26.90;1.00
2409;DHT22;8463;48.094;7.970;2023-06-05T12:45:13;27.20;1.00
2409;DHT22;8463;48.094;7.970;2023-06-05T12:47:40;27.40;1.00
2409;DHT22;8463;48.094;7.970;2023-06-05T12:50:08;27.40;1.00
2409;DHT22;8463;48.094;7.970;2023-06-05T12:52:37;27.80;1.00
2409;DHT22;8463;48.094;7.970;2023-06-05T12:55:04;28.20;1.00
2409;DHT22;8463;48.094;7.970;2023-06-05T12:57:31;28.20;1.00
2409;DHT22;8463;48.094;7.970;2023-06-05T12:59:58;28.50;1.00
2409;DHT22;8463;48.094;7.970;2023-06-05T13:02:24;28.60;1.00
2409;DHT22;8463;48.094;7.970;2023-06-05T13:04:50;28.70;1.00
2409;DHT22;8463;48.094;7.970;2023-06-05T13:07:16;28.70;1.00
2409;DHT22;8463;48.094;7.970;2023-06-05T13:09:46;28.50;1.00
2409;DHT22;8463;48.094;7.970;2023-06-05T13:12:12;28.40;1.00
2409;DHT22;8463;48.094;7.970;2023-06-05T13:14:37;28.60;1.00
2409;DHT22;8463;48.094;7.970;2023-06-05T13:17:03;28.90;1.00
2409;DHT22;8463;48.094;7.970;2023-06-05T13:19:29;29.10;1.00
2409;DHT22;8463;48.094;7.970;2023-06-05T13:21:54;29.20;1.00
2409;DHT22;8463;48.094;7.970;2023-06-05T13:24:20;29.50;1.00
2409;DHT22;8463;48.094;7.970;2023-06-05T13:26:46;29.90;1.00
2409;DHT22;8463;48.094;7.970;2023-06-05T13:29:12;29.80;1.00
2409;DHT22;8463;48.094;7.970;2023-06-05T13:31:39;29.40;1.00
2409;DHT22;8463;48.094;7.970;2023-06-05T13:34:05;29.50;1.00
2409;DHT22;8463;48.094;7.970;2023-06-05T13:36:31;29.70;1.00
2409;DHT22;8463;48.094;7.970;2023-06-05T13:38:57;29.80;1.00
2409;DHT22;8463;48.094;7.970;2023-06-05T13:41:25;29.90;1.00
2409;DHT22;8463;48.094;7.970;2023-06-05T13:43:51;30.10;1.00
2409;DHT22;8463;48.094;7.970;2023-06-05T13:46:17;30.00;1.00
2409;DHT22;8463;48.094;7.970;2023-06-05T13:48:42;30.10;1.00
2409;DHT22;8463;48.094;7.970;2023-06-05T13:51:08;30.20;1.00
2409;DHT22;8463;48.094;7.970;2023-06-05T13:53:34;30.40;1.00
2409;DHT22;8463;48.094;7.970;2023-06-05T13:56:06;30.20;1.00
2409;DHT22;8463;48.094;7.970;2023-06-05T13:58:32;30.20;1.00
2409;DHT22;8463;48.094;7.970;2023-06-05T14:00:58;30.20;1.00
2409;DHT22;8463;48.094;7.970;2023-06-05T14:03:24;30.00;1.00
2409;DHT22;8463;48.094;7.970;2023-06-05T14:05:50;30.00;1.00
2409;DHT22;8463;48.094;7.970;2023-06-05T14:08:18;30.20;1.00
2409;DHT22;8463;48.094;7.970;2023-06-05T14:10:44;30.30;1.00
2409;DHT22;8463;48.094;7.970;2023-06-05T14:13:10;30.60;1.00
2409;DHT22;8463;48.094;7.970;2023-06-05T14:15:36;30.60;1.00
2409;DHT22;8463;48.094;7.970;2023-06-05T14:18:04;30.20;1.00
2409;DHT22;8463;48.094;7.970;2023-06-05T14:20:30;30.20;1.00
2409;DHT22;8463;48.094;7.970;2023-06-05T14:22:57;30.20;1.00
2409;DHT22;8463;48.094;7.970;2023-06-05T14:25:22;30.10;1.00
2409;DHT22;8463;48.094;7.970;2023-06-05T14:27:50;30.10;1.00
2409;DHT22;8463;48.094;7.970;2023-06-05T14:32:41;29.80;1.00
2409;DHT22;8463;48.094;7.970;2023-06-05T14:35:07;29.60;1.00
2409;DHT22;8463;48.094;7.970;2023-06-05T14:37:33;29.80;1.00
2409;DHT22;8463;48.094;7.970;2023-06-05T14:39:59;29.70;1.00
2409;DHT22;8463;48.094;7.970;2023-06-05T14:42:25;29.30;1.00
2409;DHT22;8463;48.094;7.970;2023-06-05T14:44:50;29.00;1.00
2409;DHT22;8463;48.094;7.970;2023-06-05T14:47:16;29.00;1.00
2409;DHT22;8463;48.094;7.970;2023-06-05T14:49:41;29.20;1.00
2409;DHT22;8463;48.094;7.970;2023-06-05T14:52:07;29.40;1.00
2409;DHT22;8463;48.094;7.970;2023-06-05T14:54:33;29.50;1.00
2409;DHT22;8463;48.094;7.970;2023-06-05T14:56:59;29.70;1.00
2409;DHT22;8463;48.094;7.970;2023-06-05T14:59:26;29.70;1.00
2409;DHT22;8463;48.094;7.970;2023-06-05T15:01:52;29.60;1.00
2409;DHT22;8463;48.094;7.970;2023-06-05T15:04:18;29.30;1.00
2409;DHT22;8463;48.094;7.970;2023-06-05T15:06:43;29.20;1.00
2409;DHT22;8463;48.094;7.970;2023-06-05T15:09:09;29.00;1.00
2409;DHT22;8463;48.094;7.970;2023-06-05T15:11:35;28.90;1.00
2409;DHT22;8463;48.094;7.970;2023-06-05T15:14:01;28.60;1.00
2409;DHT22;8463;48.094;7.970;2023-06-05T15:18:53;28.90;1.00
2409;DHT22;8463;48.094;7.970;2023-06-05T15:21:19;29.00;1.00
2409;DHT22;8463;48.094;7.970;2023-06-05T15:28:36;28.50;1.00
2409;DHT22;8463;48.094;7.970;2023-06-05T15:31:02;28.70;1.00
2409;DHT22;8463;48.094;7.970;2023-06-05T15:33:27;28.80;1.00
2409;DHT22;8463;48.094;7.970;2023-06-05T15:35:53;29.00;1.00
2409;DHT22;8463;48.094;7.970;2023-06-05T15:38:19;29.00;1.00
2409;DHT22;8463;48.094;7.970;2023-06-05T15:40:44;29.00;1.00
2409;DHT22;8463;48.094;7.970;2023-06-05T15:43:10;29.00;1.00
2409;DHT22;8463;48.094;7.970;2023-06-05T15:45:39;28.80;1.00
2409;DHT22;8463;48.094;7.970;2023-06-05T15:48:06;28.50;1.00
2409;DHT22;8463;48.094;7.970;2023-06-05T15:50:32;28.30;1.00
2409;DHT22;8463;48.094;7.970;2023-06-05T15:52:58;28.30;1.00
2409;DHT22;8463;48.094;7.970;2023-06-05T15:57:50;28.20;1.00
2409;DHT22;8463;48.094;7.970;2023-06-05T16:00:17;28.00;1.00
2409;DHT22;8463;48.094;7.970;2023-06-05T16:02:43;28.10;1.00
2409;DHT22;8463;48.094;7.970;2023-06-05T16:05:11;27.90;1.00
2409;DHT22;8463;48.094;7.970;2023-06-05T16:07:37;28.10;1.00
2409;DHT22;8463;48.094;7.970;2023-06-05T16:14:55;28.00;1.00
2409;DHT22;8463;48.094;7.970;2023-06-05T16:17:20;28.00;1.00
2409;DHT22;8463;48.094;7.970;2023-06-05T16:19:46;27.90;1.00
2409;DHT22;8463;48.094;7.970;2023-06-05T16:22:13;27.90;1.00
2409;DHT22;8463;48.094;7.970;2023-06-05T16:24:39;27.80;1.00
2409;DHT22;8463;48.094;7.970;2023-06-05T16:27:05;27.70;1.00
2409;DHT22;8463;48.094;7.970;2023-06-05T16:29:31;27.60;1.00
2409;DHT22;8463;48.094;7.970;2023-06-05T16:31:56;27.60;1.00
2409;DHT22;8463;48.094;7.970;2023-06-05T16:34:22;27.30;1.00
2409;DHT22;8463;48.094;7.970;2023-06-05T16:36:48;27.20;1.00
2409;DHT22;8463;48.094;7.970;2023-06-05T16:39:14;27.30;1.00
2409;DHT22;8463;48.094;7.970;2023-06-05T16:41:41;27.30;1.00
2409;DHT22;8463;48.094;7.970;2023-06-05T16:44:07;27.20;1.00
2409;DHT22;8463;48.094;7.970;2023-06-05T16:46:36;27.10;1.00
2409;DHT22;8463;48.094;7.970;2023-06-05T16:49:01;27.10;1.00
2409;DHT22;8463;48.094;7.970;2023-06-05T16:53:53;27.00;1.00
2409;DHT22;8463;48.094;7.970;2023-06-05T16:56:18;27.00;1.00
2409;DHT22;8463;48.094;7.970;2023-06-05T16:58:44;26.90;1.00
2409;DHT22;8463;48.094;7.970;2023-06-05T17:01:10;26.90;1.00
2409;DHT22;8463;48.094;7.970;2023-06-05T17:03:35;26.90;1.00
2409;DHT22;8463;48.094;7.970;2023-06-05T17:06:02;26.80;1.00
2409;DHT22;8463;48.094;7.970;2023-06-05T17:10:55;26.60;1.00
2409;DHT22;8463;48.094;7.970;2023-06-05T17:13:23;26.60;1.00
2409;DHT22;8463;48.094;7.970;2023-06-05T17:15:51;26.40;1.00
2409;DHT22;8463;48.094;7.970;2023-06-05T17:20:43;25.30;1.00
2409;DHT22;8463;48.094;7.970;2023-06-05T17:23:09;24.80;1.00
2409;DHT22;8463;48.094;7.970;2023-06-05T17:25:36;24.60;1.00
2409;DHT22;8463;48.094;7.970;2023-06-05T17:30:28;23.90;1.00
2409;DHT22;8463;48.094;7.970;2023-06-05T17:32:54;23.40;1.00
2409;DHT22;8463;48.094;7.970;2023-06-05T17:35:20;22.70;1.00
2409;DHT22;8463;48.094;7.970;2023-06-05T17:37:46;22.30;1.00
2409;DHT22;8463;48.094;7.970;2023-06-05T17:40:12;22.30;1.00